createdAt,value
2022-09-12T00:02:03.362Z,2.15
2022-09-12T00:04:30.432Z,2.30
2022-09-12T00:06:57.960Z,1.83
2022-09-12T00:09:24.825Z,2.15
2022-09-12T00:11:51.738Z,2.42
2022-09-12T00:15:03.893Z,2.20
2022-09-12T00:17:37.203Z,1.83
2022-09-12T00:20:09.410Z,2.20
2022-09-12T00:22:36.707Z,2.30
2022-09-12T00:25:06.461Z,2.08
2022-09-12T00:27:34.731Z,2.50
2022-09-12T00:34:01.010Z,2.17
2022-09-12T00:36:29.382Z,2.25
2022-09-12T00:38:56.485Z,2.47
2022-09-12T00:41:37.457Z,2.40
2022-09-12T00:44:24.314Z,2.10
2022-09-12T00:47:07.760Z,2.78
2022-09-12T00:50:00.280Z,2.00
2022-09-12T00:52:33.580Z,2.20
2022-09-12T00:55:17.969Z,2.90
2022-09-12T00:58:21.766Z,3.03
2022-09-12T01:00:48.726Z,2.40
2022-09-12T01:03:19.519Z,2.15
2022-09-12T01:06:15.741Z,2.40
2022-09-12T01:08:43.894Z,2.40
2022-09-12T01:11:13.316Z,2.13
2022-09-12T01:13:40.393Z,3.30
2022-09-12T01:16:08.394Z,2.60
2022-09-12T01:18:35.306Z,2.60
2022-09-12T01:21:26.165Z,2.50
2022-09-12T01:24:26.426Z,2.25
2022-09-12T01:27:29.351Z,2.70
2022-09-12T01:30:05.145Z,2.80
2022-09-12T01:32:37.660Z,3.15
2022-09-12T01:35:07.926Z,2.80
2022-09-12T01:37:45.920Z,2.60
2022-09-12T01:40:24.044Z,2.70
2022-09-12T01:43:10.010Z,2.60
2022-09-12T01:45:44.149Z,2.85
2022-09-12T01:48:24.516Z,2.90
2022-09-12T01:50:58.041Z,2.25
2022-09-12T01:53:29.938Z,2.83
2022-09-12T01:56:09.517Z,2.65
2022-09-12T01:58:51.242Z,2.58
2022-09-12T02:01:26.854Z,2.80
2022-09-12T02:04:21.006Z,3.60
2022-09-12T02:07:22.011Z,4.37
2022-09-12T02:10:02.256Z,4.03
2022-09-12T02:12:38.235Z,3.10
2022-09-12T02:15:08.878Z,3.00
2022-09-12T02:17:45.877Z,3.15
2022-09-12T02:20:48.228Z,2.95
2022-09-12T02:23:23.035Z,3.92
2022-09-12T02:25:54.850Z,3.00
2022-09-12T02:28:34.799Z,4.50
2022-09-12T02:31:08.528Z,3.70
2022-09-12T02:33:49.017Z,3.40
2022-09-12T02:36:25.862Z,3.55
2022-09-12T02:38:53.657Z,3.55
2022-09-12T02:41:21.326Z,3.65
2022-09-12T02:43:50.458Z,3.60
2022-09-12T02:46:33.558Z,4.70
2022-09-12T02:49:00.435Z,4.50
2022-09-12T02:51:27.550Z,4.85
2022-09-12T02:53:54.416Z,3.40
2022-09-12T02:56:27.677Z,5.03
2022-09-12T02:59:06.036Z,5.57
2022-09-12T03:01:35.926Z,3.80
2022-09-12T03:04:33.548Z,3.72
2022-09-12T03:07:19.113Z,4.07
2022-09-12T03:09:49.359Z,4.25
2022-09-12T03:12:28.185Z,5.22
2022-09-12T03:15:10.982Z,5.13
2022-09-12T03:18:05.509Z,3.90
2022-09-12T03:21:16.882Z,4.00
2022-09-12T03:23:51.510Z,4.97
2022-09-12T03:26:46.263Z,4.80
2022-09-12T03:29:15.243Z,5.95
2022-09-12T03:31:51.377Z,5.22
2022-09-12T03:34:20.855Z,4.05
2022-09-12T03:36:48.111Z,5.85
2022-09-12T03:39:15.471Z,3.97
2022-09-12T03:41:42.660Z,3.55
2022-09-12T03:44:09.663Z,3.45
2022-09-12T03:46:36.765Z,4.78
2022-09-12T03:49:07.621Z,3.40
2022-09-12T03:51:35.497Z,3.50
2022-09-12T03:54:02.230Z,3.03
2022-09-12T03:56:32.851Z,4.00
2022-09-12T03:59:02.658Z,3.95
2022-09-12T04:01:29.477Z,3.53
2022-09-12T04:03:56.893Z,5.68
2022-09-12T04:06:23.774Z,4.55
2022-09-12T04:08:53.166Z,5.25
2022-09-12T04:11:33.639Z,4.65
2022-09-12T04:14:02.600Z,4.15
2022-09-12T04:16:29.709Z,7.93
2022-09-12T04:18:56.356Z,4.45
2022-09-12T04:21:23.273Z,8.80
2022-09-12T04:23:50.394Z,4.70
2022-09-12T04:26:20.942Z,8.75
2022-09-12T04:28:48.766Z,7.47
2022-09-12T04:31:22.822Z,7.78
2022-09-12T04:34:00.925Z,9.00
2022-09-12T04:36:29.040Z,11.18
2022-09-12T04:38:56.272Z,9.10
2022-09-12T04:41:27.826Z,7.70
2022-09-12T04:43:59.172Z,7.13
2022-09-12T04:46:38.552Z,9.23
2022-09-12T04:49:08.803Z,9.75
2022-09-12T04:51:42.059Z,7.00
2022-09-12T04:54:13.714Z,7.90
2022-09-12T04:56:44.178Z,9.13
2022-09-12T04:59:12.212Z,7.70
2022-09-12T05:01:39.443Z,7.35
2022-09-12T05:04:06.307Z,8.57
2022-09-12T05:06:36.273Z,7.78
2022-09-12T05:09:05.447Z,7.63
2022-09-12T05:12:02.656Z,6.43
2022-09-12T05:14:28.324Z,7.03
2022-09-12T05:17:00.492Z,6.50
2022-09-12T05:19:28.275Z,6.90
2022-09-12T05:21:55.179Z,6.82
2022-09-12T05:24:23.086Z,6.82
2022-09-12T05:26:53.693Z,7.10
2022-09-12T05:29:22.303Z,8.02
2022-09-12T05:31:58.570Z,7.38
2022-09-12T05:34:25.285Z,7.90
2022-09-12T05:36:52.178Z,7.82
2022-09-12T05:39:22.893Z,8.60
2022-09-12T05:42:32.508Z,11.02
2022-09-12T05:45:01.738Z,8.10
2022-09-12T05:47:28.440Z,8.07
2022-09-12T05:49:55.416Z,9.40
2022-09-12T05:52:22.125Z,7.78
2022-09-12T05:54:48.894Z,7.75
2022-09-12T05:57:15.591Z,7.55
2022-09-12T05:59:43.385Z,6.20
2022-09-12T06:02:11.244Z,7.03
2022-09-12T06:04:41.066Z,6.78
2022-09-12T06:07:07.785Z,5.88
2022-09-12T06:09:34.566Z,6.32
2022-09-12T06:12:04.055Z,6.50
2022-09-12T06:14:31.104Z,6.00
2022-09-12T06:16:57.982Z,6.63
2022-09-12T06:19:25.605Z,8.45
2022-09-12T06:21:54.672Z,6.50
2022-09-12T06:24:22.472Z,6.20
2022-09-12T06:26:52.968Z,5.55
2022-09-12T06:29:20.358Z,6.80
2022-09-12T06:31:56.316Z,5.70
2022-09-12T06:34:22.992Z,6.03
2022-09-12T06:36:53.216Z,4.95
2022-09-12T06:39:21.843Z,5.65
2022-09-12T06:41:50.697Z,4.68
2022-09-12T06:44:20.481Z,5.90
2022-09-12T06:46:47.542Z,6.55
2022-09-12T06:49:14.878Z,5.22
2022-09-12T06:51:42.722Z,5.40
2022-09-12T06:54:12.160Z,4.55
2022-09-12T06:56:39.008Z,4.07
2022-09-12T06:59:05.680Z,3.13
2022-09-12T07:01:33.064Z,3.80
2022-09-12T07:04:02.575Z,3.30
2022-09-12T07:06:32.174Z,3.53
2022-09-12T07:09:00.566Z,4.47
2022-09-12T07:11:34.099Z,3.80
2022-09-12T07:14:32.594Z,11.68
2022-09-12T07:16:59.220Z,8.88
2022-09-12T07:19:28.656Z,2.95
2022-09-12T07:21:58.549Z,4.03
2022-09-12T07:24:28.422Z,7.60
2022-09-12T07:26:55.044Z,3.78
2022-09-12T07:29:38.031Z,4.43
2022-09-12T07:32:06.081Z,3.33
2022-09-12T07:34:34.653Z,3.65
2022-09-12T07:37:01.364Z,4.82
2022-09-12T07:39:36.912Z,4.50
2022-09-12T07:42:06.252Z,4.18
2022-09-12T07:44:33.187Z,4.60
2022-09-12T07:47:06.270Z,3.53
2022-09-12T07:49:33.147Z,4.75
2022-09-12T07:52:00.243Z,2.28
2022-09-12T07:54:27.885Z,4.55
2022-09-12T07:56:55.003Z,2.65
2022-09-12T07:59:48.813Z,2.92
2022-09-12T08:02:22.909Z,3.45
2022-09-12T08:04:49.629Z,3.78
2022-09-12T08:07:18.627Z,4.30
2022-09-12T08:09:46.524Z,3.28
2022-09-12T08:14:53.905Z,3.10
2022-09-12T08:17:21.351Z,3.72
2022-09-12T08:19:48.383Z,4.60
2022-09-12T08:22:15.965Z,3.03
2022-09-12T08:24:46.068Z,3.10
2022-09-12T08:27:12.962Z,3.13
2022-09-12T08:29:39.638Z,2.90
2022-09-12T08:32:06.783Z,3.47
2022-09-12T08:34:33.748Z,3.10
2022-09-12T08:37:00.439Z,4.03
2022-09-12T08:39:27.136Z,4.18
2022-09-12T08:42:05.808Z,3.58
2022-09-12T08:45:01.719Z,3.50
2022-09-12T08:47:48.491Z,3.53
2022-09-12T08:50:21.317Z,5.25
2022-09-12T08:53:11.277Z,4.00
2022-09-12T08:55:40.717Z,4.32
2022-09-12T08:58:39.290Z,5.80
2022-09-12T09:02:07.490Z,4.10
2022-09-12T09:04:37.481Z,3.72
2022-09-12T09:07:41.373Z,5.00
2022-09-12T09:10:38.270Z,5.43
2022-09-12T09:13:36.028Z,5.72
2022-09-12T09:16:30.744Z,6.75
2022-09-12T09:19:05.564Z,4.75
2022-09-12T09:21:42.787Z,3.65
2022-09-12T09:24:14.386Z,4.05
2022-09-12T09:26:48.795Z,3.38
2022-09-12T09:29:18.034Z,4.22
2022-09-12T09:31:52.203Z,3.47
2022-09-12T09:37:03.209Z,3.80
2022-09-12T09:39:51.497Z,4.82
2022-09-12T09:42:26.948Z,3.05
2022-09-12T09:44:56.845Z,3.88
2022-09-12T09:47:23.534Z,4.55
2022-09-12T09:49:50.167Z,3.20
2022-09-12T09:52:24.351Z,2.97
2022-09-12T09:57:37.181Z,2.42
2022-09-12T10:00:22.148Z,2.13
2022-09-12T10:03:27.055Z,3.03
2022-09-12T10:05:57.373Z,2.70
2022-09-12T10:08:24.163Z,1.65
2022-09-12T10:10:58.794Z,2.50
2022-09-12T10:13:33.146Z,3.75
2022-09-12T10:16:03.592Z,2.47
2022-09-12T10:18:40.710Z,2.10
2022-09-12T10:21:22.575Z,1.80
2022-09-12T10:24:00.192Z,1.83
2022-09-12T10:26:32.563Z,1.60
2022-09-12T10:29:05.044Z,1.58
2022-09-12T10:31:49.945Z,1.73
2022-09-12T10:34:25.481Z,1.30
2022-09-12T10:37:01.619Z,1.65
2022-09-12T10:39:28.686Z,2.22
2022-09-12T10:41:55.514Z,1.45
2022-09-12T10:44:31.069Z,1.90
2022-09-12T10:46:59.466Z,2.03
2022-09-12T10:49:29.646Z,2.10
2022-09-12T10:51:59.725Z,2.25
2022-09-12T10:54:28.530Z,2.40
2022-09-12T10:57:01.261Z,2.38
2022-09-12T10:59:46.151Z,2.55
2022-09-12T11:03:05.284Z,2.58
2022-09-12T11:05:37.495Z,1.95
2022-09-12T11:08:48.055Z,4.57
2022-09-12T11:11:17.365Z,2.60
2022-09-12T11:13:53.016Z,2.25
2022-09-12T11:16:34.626Z,2.35
2022-09-12T11:19:34.226Z,2.30
2022-09-12T11:22:01.102Z,2.13
2022-09-12T11:24:37.757Z,1.90
2022-09-12T11:27:19.732Z,2.20
2022-09-12T11:29:54.798Z,2.53
2022-09-12T11:32:34.285Z,2.30
2022-09-12T11:35:00.851Z,3.00
2022-09-12T11:37:27.939Z,2.42
2022-09-12T11:39:56.825Z,2.60
2022-09-12T11:42:28.550Z,1.98
2022-09-12T11:45:04.850Z,2.85
2022-09-12T11:47:34.947Z,2.20
2022-09-12T11:50:09.144Z,2.10
2022-09-12T11:52:42.680Z,2.28
2022-09-12T11:55:18.586Z,1.70
2022-09-12T11:57:51.932Z,2.85
2022-09-12T12:00:20.308Z,2.00
2022-09-12T12:03:04.773Z,2.92
2022-09-12T12:05:41.176Z,2.08
2022-09-12T12:08:08.674Z,2.40
2022-09-12T12:10:41.826Z,1.98
2022-09-12T12:13:39.998Z,1.93
2022-09-12T12:16:24.945Z,2.33
2022-09-12T12:19:06.385Z,1.65
2022-09-12T12:21:40.303Z,1.80
2022-09-12T12:24:10.174Z,1.60
2022-09-12T12:26:39.834Z,1.80
2022-09-12T12:29:18.514Z,2.15
2022-09-12T12:32:03.549Z,2.00
2022-09-12T12:34:37.920Z,2.65
2022-09-12T12:37:19.753Z,1.70
2022-09-12T12:39:54.037Z,1.75
2022-09-12T12:42:33.581Z,2.17
2022-09-12T12:45:09.182Z,2.25
2022-09-12T12:47:39.395Z,2.13
2022-09-12T12:50:16.494Z,2.03
2022-09-12T12:53:05.810Z,1.77
2022-09-12T12:55:39.061Z,2.13
2022-09-12T12:58:08.805Z,2.05
2022-09-12T13:00:39.798Z,1.83
2022-09-12T13:03:09.527Z,2.08
2022-09-12T13:05:40.356Z,2.10
2022-09-12T13:08:10.949Z,1.70
2022-09-12T13:10:38.677Z,1.95
2022-09-12T13:13:08.771Z,2.10
2022-09-12T13:15:38.203Z,1.85
2022-09-12T13:18:13.282Z,1.90
2022-09-12T13:21:21.802Z,2.13
2022-09-12T13:24:16.115Z,2.83
2022-09-12T13:26:46.981Z,2.67
2022-09-12T13:29:19.226Z,2.08
2022-09-12T13:31:52.102Z,14.90
2022-09-12T13:34:24.612Z,2.15
2022-09-12T13:37:11.481Z,1.98
2022-09-12T13:40:39.644Z,1.67
2022-09-12T13:43:23.390Z,2.50
2022-09-12T13:45:51.555Z,2.33
2022-09-12T13:48:25.465Z,2.20
2022-09-12T13:53:28.426Z,2.10
2022-09-12T13:55:59.307Z,2.20
2022-09-12T13:58:30.991Z,1.70
2022-09-12T14:01:20.572Z,1.80
2022-09-12T14:04:14.742Z,1.52
2022-09-12T14:07:00.177Z,1.58
2022-09-12T14:09:34.827Z,1.52
2022-09-12T14:12:19.254Z,2.35
2022-09-12T14:14:50.153Z,3.13
2022-09-12T14:17:19.804Z,2.30
2022-09-12T14:19:50.118Z,1.97
2022-09-12T14:22:19.713Z,2.00
2022-09-12T14:24:50.606Z,2.50
2022-09-12T14:27:26.246Z,2.45
2022-09-12T14:30:02.456Z,2.42
2022-09-12T14:32:29.440Z,2.00
2022-09-12T14:35:15.511Z,2.45
2022-09-12T14:37:52.441Z,2.20
2022-09-12T14:40:22.390Z,3.67
2022-09-12T14:42:59.311Z,2.35
2022-09-12T14:45:31.782Z,2.67
2022-09-12T14:48:00.799Z,2.53
2022-09-12T14:50:35.406Z,2.67
2022-09-12T14:53:12.056Z,2.67
2022-09-12T14:58:45.211Z,2.72
2022-09-12T15:01:16.171Z,3.08
2022-09-12T15:03:49.697Z,1.67
2022-09-12T15:09:17.235Z,2.10
2022-09-12T15:11:46.654Z,1.88
2022-09-12T15:14:14.526Z,1.80
2022-09-12T15:16:44.871Z,2.30
2022-09-12T15:24:43.509Z,2.72
2022-09-12T15:27:35.547Z,2.40
2022-09-12T15:30:16.112Z,2.20
2022-09-12T15:35:42.687Z,2.50
2022-09-12T15:39:05.394Z,2.50
2022-09-12T15:50:00.943Z,2.65
2022-09-12T15:52:30.173Z,2.55
2022-09-12T15:55:18.524Z,1.80
2022-09-12T15:57:46.638Z,2.30
2022-09-12T16:00:24.800Z,3.00
2022-09-12T16:05:41.556Z,2.00
2022-09-12T16:08:18.025Z,2.22
2022-09-12T16:10:47.917Z,2.67
2022-09-12T16:13:14.583Z,2.10
2022-09-12T16:15:41.708Z,3.78
2022-09-12T16:18:08.323Z,2.60
2022-09-12T16:20:35.329Z,1.83
2022-09-12T16:23:02.157Z,1.90
2022-09-12T16:25:29.322Z,2.25
2022-09-12T16:27:56.182Z,2.20
2022-09-12T16:30:23.206Z,2.25
2022-09-12T16:32:51.814Z,2.03
2022-09-12T16:35:18.826Z,2.05
2022-09-12T16:37:54.377Z,2.53
2022-09-12T16:40:24.723Z,2.50
2022-09-12T16:42:51.345Z,3.15
2022-09-12T16:45:18.131Z,4.00
2022-09-12T16:51:33.108Z,4.00
2022-09-12T16:54:19.019Z,2.38
2022-09-12T16:56:50.018Z,2.47
2022-09-12T16:59:32.818Z,2.58
2022-09-12T17:02:12.217Z,3.22
2022-09-12T17:04:55.593Z,2.47
2022-09-12T17:07:23.292Z,2.38
2022-09-12T17:10:09.713Z,3.58
2022-09-12T17:12:46.337Z,2.60
2022-09-12T17:18:57.782Z,7.47
2022-09-12T17:21:24.797Z,5.07
2022-09-12T17:23:51.545Z,4.18
2022-09-12T17:26:18.467Z,2.40
2022-09-12T17:28:45.099Z,3.50
2022-09-12T17:31:13.921Z,3.95
2022-09-12T17:33:41.839Z,2.60
2022-09-12T17:36:13.792Z,2.90
2022-09-12T17:38:55.075Z,3.05
2022-09-12T17:41:59.127Z,3.40
2022-09-12T17:44:39.559Z,2.97
2022-09-12T17:47:14.618Z,3.33
2022-09-12T17:49:41.748Z,3.63
2022-09-12T17:52:21.566Z,2.70
2022-09-12T17:54:55.186Z,2.05
2022-09-12T17:57:50.804Z,3.45
2022-09-12T18:00:18.307Z,4.00
2022-09-12T18:03:30.008Z,4.25
2022-09-12T18:06:03.770Z,4.72
2022-09-12T18:08:37.305Z,7.03
2022-09-12T18:11:12.599Z,4.68
2022-09-12T18:13:43.888Z,3.63
2022-09-12T18:16:12.782Z,2.78
2022-09-12T18:18:39.615Z,3.53
2022-09-12T18:21:12.945Z,3.33
2022-09-12T18:23:53.482Z,3.83
2022-09-12T18:26:36.644Z,3.03
2022-09-12T18:29:12.322Z,3.80
2022-09-12T18:31:39.803Z,4.45
2022-09-12T18:34:19.126Z,4.45
2022-09-12T18:36:56.316Z,3.53
2022-09-12T18:39:28.070Z,3.38
2022-09-12T18:41:55.385Z,3.80
2022-09-12T18:47:26.077Z,4.03
2022-09-12T18:52:38.840Z,3.10
2022-09-12T18:55:08.503Z,3.80
2022-09-12T18:57:35.931Z,3.40
2022-09-12T19:00:12.468Z,3.40
2022-09-12T19:05:20.391Z,3.47
2022-09-12T19:07:47.365Z,3.45
2022-09-12T19:10:16.194Z,5.57
2022-09-12T19:12:43.431Z,4.80
2022-09-12T19:15:22.365Z,4.50
2022-09-12T19:17:50.144Z,3.92
2022-09-12T19:20:17.333Z,4.72
2022-09-12T19:22:45.197Z,4.68
2022-09-12T19:25:14.163Z,5.85
2022-09-12T19:27:47.666Z,3.65
2022-09-12T19:33:09.074Z,6.30
2022-09-12T19:38:20.082Z,5.32
2022-09-12T19:40:58.693Z,3.50
2022-09-12T19:43:25.721Z,6.45
2022-09-12T19:45:53.226Z,3.60
2022-09-12T19:51:14.627Z,3.90
2022-09-12T19:53:42.474Z,4.10
2022-09-12T19:56:15.297Z,4.10
2022-09-12T19:58:44.724Z,3.67
2022-09-12T20:01:25.095Z,4.88
2022-09-12T20:03:54.636Z,5.05
2022-09-12T20:06:27.673Z,6.07
2022-09-12T20:08:59.163Z,8.80
2022-09-12T20:11:38.234Z,6.70
2022-09-12T20:14:10.686Z,5.80
2022-09-12T20:16:48.940Z,5.20
2022-09-12T20:19:43.250Z,5.60
2022-09-12T20:22:22.967Z,5.20
2022-09-12T20:24:50.545Z,4.53
2022-09-12T20:27:19.934Z,5.95
2022-09-12T20:29:48.444Z,5.03
2022-09-12T20:32:26.254Z,5.35
2022-09-12T20:34:53.997Z,4.57
2022-09-12T20:37:34.503Z,4.38
2022-09-12T20:40:07.092Z,4.32
2022-09-12T20:42:34.854Z,4.45
2022-09-12T20:45:04.190Z,5.43
2022-09-12T20:47:31.806Z,4.63
2022-09-12T20:50:14.189Z,4.68
2022-09-12T20:52:46.927Z,4.13
2022-09-12T20:57:59.461Z,3.63
2022-09-12T21:00:30.548Z,3.70
2022-09-12T21:02:57.792Z,3.45
2022-09-12T21:05:42.458Z,3.88
2022-09-12T21:10:44.806Z,4.05
2022-09-12T21:13:15.603Z,4.82
2022-09-12T21:15:47.374Z,4.60
2022-09-12T21:18:15.911Z,4.28
2022-09-12T21:20:51.458Z,4.38
2022-09-12T21:26:00.918Z,4.53
2022-09-12T21:28:36.681Z,5.10
2022-09-12T21:31:04.739Z,4.85
2022-09-12T21:33:36.731Z,4.40
2022-09-12T21:36:07.293Z,5.45
2022-09-12T21:38:37.562Z,4.93
2022-09-12T21:41:16.435Z,5.30
2022-09-12T21:43:46.496Z,5.03
2022-09-12T21:49:13.475Z,4.88
2022-09-12T21:51:41.360Z,4.95
2022-09-12T21:54:11.213Z,4.68
2022-09-12T21:56:43.708Z,4.68
2022-09-12T21:59:10.476Z,4.50
2022-09-12T22:01:38.540Z,5.00
2022-09-12T22:04:06.824Z,4.03
2022-09-12T22:06:35.092Z,4.07
2022-09-12T22:09:01.841Z,4.28
2022-09-12T22:11:30.925Z,4.25
2022-09-12T22:14:00.233Z,4.88
2022-09-12T22:16:27.137Z,4.38
2022-09-12T22:18:56.365Z,4.25
2022-09-12T22:21:34.009Z,4.18
2022-09-12T22:27:08.249Z,4.80
2022-09-12T22:29:36.312Z,4.30
2022-09-12T22:32:05.631Z,5.88
2022-09-12T22:34:32.351Z,4.90
2022-09-12T22:37:04.305Z,5.10
2022-09-12T22:39:31.034Z,5.28
2022-09-12T22:44:51.989Z,5.38
2022-09-12T22:47:29.370Z,4.40
2022-09-12T22:49:56.446Z,4.13
2022-09-12T22:52:25.025Z,4.50
2022-09-12T22:54:52.149Z,4.68
2022-09-12T22:57:23.969Z,4.78
2022-09-12T22:59:50.941Z,4.60
2022-09-12T23:02:17.740Z,4.65
2022-09-12T23:04:46.898Z,4.78
2022-09-12T23:07:13.698Z,4.90
2022-09-12T23:09:43.600Z,5.00
2022-09-12T23:12:14.206Z,4.63
2022-09-12T23:14:41.070Z,4.85
2022-09-12T23:17:18.923Z,4.72
2022-09-12T23:19:47.679Z,4.60
2022-09-12T23:25:19.574Z,4.50
2022-09-12T23:27:53.981Z,4.30
2022-09-12T23:30:25.937Z,4.38
2022-09-12T23:32:52.627Z,4.55
2022-09-12T23:35:20.022Z,4.53
2022-09-12T23:37:52.803Z,4.50
2022-09-12T23:40:22.380Z,4.90
2022-09-12T23:49:53.100Z,4.55
2022-09-12T23:52:20.874Z,5.60
2022-09-12T23:54:51.055Z,5.65
2022-09-12T23:57:23.688Z,5.97
2022-09-12T23:59:54.513Z,5.70
